sensor_id;sensor_type;location;lat;lon;timestamp;P1;durP1;ratioP1;P2;durP2;ratioP2
45420;SDS011;55462;47.042;8.292;2023-04-01T00:01:20;2.00;;;0.55;;
45420;SDS011;55462;47.042;8.292;2023-04-01T00:03:46;2.85;;;0.70;;
45420;SDS011;55462;47.042;8.292;2023-04-01T00:06:12;0.50;;;0.50;;
45420;SDS011;55462;47.042;8.292;2023-04-01T00:08:39;1.70;;;0.80;;
45420;SDS011;55462;47.042;8.292;2023-04-01T00:11:04;0.65;;;0.57;;
45420;SDS011;55462;47.042;8.292;2023-04-01T00:13:30;1.40;;;1.23;;
45420;SDS011;55462;47.042;8.292;2023-04-01T00:15:56;1.52;;;0.77;;
45420;SDS011;55462;47.042;8.292;2023-04-01T00:18:21;4.35;;;1.45;;
45420;SDS011;55462;47.042;8.292;2023-04-01T00:20:47;1.08;;;0.70;;
45420;SDS011;55462;47.042;8.292;2023-04-01T00:23:14;0.82;;;0.80;;
45420;SDS011;55462;47.042;8.292;2023-04-01T00:25:40;0.75;;;0.75;;
45420;SDS011;55462;47.042;8.292;2023-04-01T00:28:05;1.38;;;0.70;;
45420;SDS011;55462;47.042;8.292;2023-04-01T00:30:30;0.88;;;0.80;;
45420;SDS011;55462;47.042;8.292;2023-04-01T00:32:56;1.23;;;0.80;;
45420;SDS011;55462;47.042;8.292;2023-04-01T00:35:21;0.60;;;0.60;;
45420;SDS011;55462;47.042;8.292;2023-04-01T00:37:47;1.47;;;0.70;;
45420;SDS011;55462;47.042;8.292;2023-04-01T00:40:29;0.68;;;0.68;;
45420;SDS011;55462;47.042;8.292;2023-04-01T00:42:57;0.80;;;0.80;;
45420;SDS011;55462;47.042;8.292;2023-04-01T00:45:27;1.00;;;0.70;;
45420;SDS011;55462;47.042;8.292;2023-04-01T00:47:53;1.00;;;0.70;;
45420;SDS011;55462;47.042;8.292;2023-04-01T00:50:19;0.73;;;0.63;;
45420;SDS011;55462;47.042;8.292;2023-04-01T00:52:47;1.80;;;0.80;;
45420;SDS011;55462;47.042;8.292;2023-04-01T00:55:12;1.17;;;0.60;;
45420;SDS011;55462;47.042;8.292;2023-04-01T00:57:40;1.35;;;0.60;;
45420;SDS011;55462;47.042;8.292;2023-04-01T01:00:08;0.70;;;0.70;;
45420;SDS011;55462;47.042;8.292;2023-04-01T01:02:36;0.60;;;0.60;;
45420;SDS011;55462;47.042;8.292;2023-04-01T01:05:01;0.60;;;0.60;;
45420;SDS011;55462;47.042;8.292;2023-04-01T01:12:40;1.23;;;0.50;;
45420;SDS011;55462;47.042;8.292;2023-04-01T01:26:03;0.73;;;0.50;;
45420;SDS011;55462;47.042;8.292;2023-04-01T01:31:30;0.80;;;0.60;;
45420;SDS011;55462;47.042;8.292;2023-04-01T01:34:21;0.60;;;0.60;;
45420;SDS011;55462;47.042;8.292;2023-04-01T01:36:51;0.50;;;0.50;;
45420;SDS011;55462;47.042;8.292;2023-04-01T01:39:19;0.70;;;0.70;;
45420;SDS011;55462;47.042;8.292;2023-04-01T01:41:45;0.70;;;0.70;;
45420;SDS011;55462;47.042;8.292;2023-04-01T01:44:12;0.68;;;0.52;;
45420;SDS011;55462;47.042;8.292;2023-04-01T01:46:39;0.52;;;0.50;;
45420;SDS011;55462;47.042;8.292;2023-04-01T01:49:06;0.77;;;0.50;;
45420;SDS011;55462;47.042;8.292;2023-04-01T01:51:32;0.60;;;0.50;;
45420;SDS011;55462;47.042;8.292;2023-04-01T01:53:58;0.50;;;0.50;;
45420;SDS011;55462;47.042;8.292;2023-04-01T01:56:24;0.97;;;0.40;;
45420;SDS011;55462;47.042;8.292;2023-04-01T01:58:52;0.30;;;0.30;;
45420;SDS011;55462;47.042;8.292;2023-04-01T02:01:24;0.50;;;0.50;;
45420;SDS011;55462;47.042;8.292;2023-04-01T02:03:51;1.10;;;0.50;;
45420;SDS011;55462;47.042;8.292;2023-04-01T02:06:18;0.40;;;0.30;;
45420;SDS011;55462;47.042;8.292;2023-04-01T02:08:46;0.57;;;0.57;;
45420;SDS011;55462;47.042;8.292;2023-04-01T02:11:17;1.15;;;0.60;;
45420;SDS011;55462;47.042;8.292;2023-04-01T02:16:23;0.30;;;0.30;;
45420;SDS011;55462;47.042;8.292;2023-04-01T02:18:51;0.75;;;0.47;;
45420;SDS011;55462;47.042;8.292;2023-04-01T02:21:19;0.55;;;0.38;;
45420;SDS011;55462;47.042;8.292;2023-04-01T02:23:45;0.47;;;0.47;;
45420;SDS011;55462;47.042;8.292;2023-04-01T02:26:11;0.52;;;0.40;;
45420;SDS011;55462;47.042;8.292;2023-04-01T02:28:38;1.00;;;0.55;;
45420;SDS011;55462;47.042;8.292;2023-04-01T02:31:04;1.10;;;0.50;;
45420;SDS011;55462;47.042;8.292;2023-04-01T02:33:30;0.47;;;0.40;;
45420;SDS011;55462;47.042;8.292;2023-04-01T02:35:55;0.57;;;0.57;;
45420;SDS011;55462;47.042;8.292;2023-04-01T02:38:21;1.23;;;0.60;;
45420;SDS011;55462;47.042;8.292;2023-04-01T02:40:48;0.57;;;0.50;;
45420;SDS011;55462;47.042;8.292;2023-04-01T02:43:16;0.63;;;0.52;;
45420;SDS011;55462;47.042;8.292;2023-04-01T02:45:42;0.68;;;0.47;;
45420;SDS011;55462;47.042;8.292;2023-04-01T02:48:08;1.02;;;0.63;;
45420;SDS011;55462;47.042;8.292;2023-04-01T02:50:33;0.98;;;0.68;;
45420;SDS011;55462;47.042;8.292;2023-04-01T02:52:59;0.90;;;0.50;;
45420;SDS011;55462;47.042;8.292;2023-04-01T02:55:25;0.68;;;0.63;;
45420;SDS011;55462;47.042;8.292;2023-04-01T02:57:50;1.08;;;0.77;;
45420;SDS011;55462;47.042;8.292;2023-04-01T03:00:16;1.58;;;1.13;;
45420;SDS011;55462;47.042;8.292;2023-04-01T03:02:41;0.47;;;0.40;;
45420;SDS011;55462;47.042;8.292;2023-04-01T03:05:09;2.50;;;0.50;;
45420;SDS011;55462;47.042;8.292;2023-04-01T03:07:34;1.38;;;0.57;;
45420;SDS011;55462;47.042;8.292;2023-04-01T03:09:59;0.47;;;0.45;;
45420;SDS011;55462;47.042;8.292;2023-04-01T03:12:25;1.92;;;0.80;;
45420;SDS011;55462;47.042;8.292;2023-04-01T03:14:50;0.55;;;0.55;;
45420;SDS011;55462;47.042;8.292;2023-04-01T03:17:15;1.23;;;0.60;;
45420;SDS011;55462;47.042;8.292;2023-04-01T03:19:40;0.88;;;0.70;;
45420;SDS011;55462;47.042;8.292;2023-04-01T03:22:06;1.00;;;0.65;;
45420;SDS011;55462;47.042;8.292;2023-04-01T03:24:31;0.55;;;0.55;;
45420;SDS011;55462;47.042;8.292;2023-04-01T03:26:56;0.70;;;0.70;;
45420;SDS011;55462;47.042;8.292;2023-04-01T03:29:22;1.80;;;1.05;;
45420;SDS011;55462;47.042;8.292;2023-04-01T03:31:47;2.22;;;0.95;;
45420;SDS011;55462;47.042;8.292;2023-04-01T03:34:12;1.25;;;0.70;;
45420;SDS011;55462;47.042;8.292;2023-04-01T03:36:38;0.65;;;0.60;;
45420;SDS011;55462;47.042;8.292;2023-04-01T03:39:03;1.92;;;0.60;;
45420;SDS011;55462;47.042;8.292;2023-04-01T03:41:28;1.27;;;0.88;;
45420;SDS011;55462;47.042;8.292;2023-04-01T03:43:55;0.60;;;0.60;;
45420;SDS011;55462;47.042;8.292;2023-04-01T03:46:20;2.42;;;0.90;;
45420;SDS011;55462;47.042;8.292;2023-04-01T03:48:47;0.70;;;0.65;;
45420;SDS011;55462;47.042;8.292;2023-04-01T03:51:12;0.43;;;0.43;;
45420;SDS011;55462;47.042;8.292;2023-04-01T03:53:38;1.20;;;0.80;;
45420;SDS011;55462;47.042;8.292;2023-04-01T03:56:04;0.70;;;0.70;;
45420;SDS011;55462;47.042;8.292;2023-04-01T03:58:30;0.73;;;0.50;;
45420;SDS011;55462;47.042;8.292;2023-04-01T04:00:55;0.50;;;0.50;;
45420;SDS011;55462;47.042;8.292;2023-04-01T04:03:21;0.73;;;0.60;;
45420;SDS011;55462;47.042;8.292;2023-04-01T04:05:47;0.60;;;0.60;;
45420;SDS011;55462;47.042;8.292;2023-04-01T04:08:13;0.88;;;0.65;;
45420;SDS011;55462;47.042;8.292;2023-04-01T04:10:38;0.50;;;0.50;;
45420;SDS011;55462;47.042;8.292;2023-04-01T04:13:04;0.50;;;0.50;;
45420;SDS011;55462;47.042;8.292;2023-04-01T04:15:30;0.73;;;0.63;;
45420;SDS011;55462;47.042;8.292;2023-04-01T04:17:55;0.77;;;0.63;;
45420;SDS011;55462;47.042;8.292;2023-04-01T04:20:20;0.68;;;0.50;;
45420;SDS011;55462;47.042;8.292;2023-04-01T04:22:46;1.60;;;0.50;;
45420;SDS011;55462;47.042;8.292;2023-04-01T04:25:11;0.63;;;0.63;;
45420;SDS011;55462;47.042;8.292;2023-04-01T04:27:36;0.43;;;0.43;;
45420;SDS011;55462;47.042;8.292;2023-04-01T04:30:02;1.63;;;0.60;;
45420;SDS011;55462;47.042;8.292;2023-04-01T04:32:28;0.90;;;0.60;;
45420;SDS011;55462;47.042;8.292;2023-04-01T04:34:53;0.90;;;0.70;;
45420;SDS011;55462;47.042;8.292;2023-04-01T04:37:18;0.93;;;0.50;;
45420;SDS011;55462;47.042;8.292;2023-04-01T04:39:44;0.50;;;0.50;;
45420;SDS011;55462;47.042;8.292;2023-04-01T04:42:09;0.60;;;0.60;;
45420;SDS011;55462;47.042;8.292;2023-04-01T04:44:34;0.50;;;0.50;;
45420;SDS011;55462;47.042;8.292;2023-04-01T04:47:00;0.60;;;0.60;;
45420;SDS011;55462;47.042;8.292;2023-04-01T04:49:26;0.90;;;0.70;;
45420;SDS011;55462;47.042;8.292;2023-04-01T04:51:51;0.60;;;0.60;;
45420;SDS011;55462;47.042;8.292;2023-04-01T04:54:17;0.60;;;0.60;;
45420;SDS011;55462;47.042;8.292;2023-04-01T04:56:42;0.40;;;0.40;;
45420;SDS011;55462;47.042;8.292;2023-04-01T04:59:08;0.70;;;0.70;;
45420;SDS011;55462;47.042;8.292;2023-04-01T05:01:33;0.68;;;0.68;;
45420;SDS011;55462;47.042;8.292;2023-04-01T05:03:58;0.52;;;0.52;;
45420;SDS011;55462;47.042;8.292;2023-04-01T05:06:24;0.60;;;0.60;;
45420;SDS011;55462;47.042;8.292;2023-04-01T05:08:50;0.77;;;0.63;;
45420;SDS011;55462;47.042;8.292;2023-04-01T05:11:16;0.60;;;0.60;;
45420;SDS011;55462;47.042;8.292;2023-04-01T05:13:43;0.47;;;0.47;;
45420;SDS011;55462;47.042;8.292;2023-04-01T05:16:10;0.50;;;0.50;;
45420;SDS011;55462;47.042;8.292;2023-04-01T05:18:36;0.50;;;0.50;;
45420;SDS011;55462;47.042;8.292;2023-04-01T05:21:01;0.80;;;0.80;;
45420;SDS011;55462;47.042;8.292;2023-04-01T05:23:26;0.82;;;0.82;;
45420;SDS011;55462;47.042;8.292;2023-04-01T05:25:52;0.73;;;0.68;;
45420;SDS011;55462;47.042;8.292;2023-04-01T05:28:18;0.57;;;0.50;;
45420;SDS011;55462;47.042;8.292;2023-04-01T05:30:44;0.53;;;0.53;;
45420;SDS011;55462;47.042;8.292;2023-04-01T05:33:10;0.55;;;0.55;;
45420;SDS011;55462;47.042;8.292;2023-04-01T05:35:36;0.63;;;0.50;;
45420;SDS011;55462;47.042;8.292;2023-04-01T05:38:02;0.45;;;0.45;;
45420;SDS011;55462;47.042;8.292;2023-04-01T05:40:28;1.00;;;0.90;;
45420;SDS011;55462;47.042;8.292;2023-04-01T05:42:53;0.57;;;0.57;;
45420;SDS011;55462;47.042;8.292;2023-04-01T05:45:19;0.40;;;0.40;;
45420;SDS011;55462;47.042;8.292;2023-04-01T05:47:44;0.85;;;0.40;;
45420;SDS011;55462;47.042;8.292;2023-04-01T05:50:10;0.40;;;0.40;;
45420;SDS011;55462;47.042;8.292;2023-04-01T05:52:35;0.50;;;0.50;;
45420;SDS011;55462;47.042;8.292;2023-04-01T05:55:01;1.05;;;0.60;;
45420;SDS011;55462;47.042;8.292;2023-04-01T05:57:27;0.47;;;0.40;;
45420;SDS011;55462;47.042;8.292;2023-04-01T05:59:52;0.70;;;0.50;;
45420;SDS011;55462;47.042;8.292;2023-04-01T06:02:18;1.10;;;1.10;;
45420;SDS011;55462;47.042;8.292;2023-04-01T06:04:43;0.45;;;0.43;;
45420;SDS011;55462;47.042;8.292;2023-04-01T06:07:13;0.47;;;0.47;;
45420;SDS011;55462;47.042;8.292;2023-04-01T06:09:39;0.40;;;0.40;;
45420;SDS011;55462;47.042;8.292;2023-04-01T06:15:13;0.50;;;0.50;;
45420;SDS011;55462;47.042;8.292;2023-04-01T06:23:24;0.40;;;0.40;;
45420;SDS011;55462;47.042;8.292;2023-04-01T06:26:25;0.30;;;0.30;;
45420;SDS011;55462;47.042;8.292;2023-04-01T06:40:48;0.38;;;0.38;;
45420;SDS011;55462;47.042;8.292;2023-04-01T06:45:55;0.30;;;0.30;;
45420;SDS011;55462;47.042;8.292;2023-04-01T06:56:05;1.25;;;0.30;;
45420;SDS011;55462;47.042;8.292;2023-04-01T06:58:40;0.30;;;0.30;;
45420;SDS011;55462;47.042;8.292;2023-04-01T07:01:10;0.30;;;0.30;;
45420;SDS011;55462;47.042;8.292;2023-04-01T07:03:48;0.47;;;0.47;;
45420;SDS011;55462;47.042;8.292;2023-04-01T07:06:20;0.40;;;0.40;;
45420;SDS011;55462;47.042;8.292;2023-04-01T07:08:51;0.30;;;0.30;;
45420;SDS011;55462;47.042;8.292;2023-04-01T07:11:24;0.52;;;0.40;;
45420;SDS011;55462;47.042;8.292;2023-04-01T07:16:28;0.30;;;0.30;;
45420;SDS011;55462;47.042;8.292;2023-04-01T07:19:01;0.40;;;0.40;;
45420;SDS011;55462;47.042;8.292;2023-04-01T07:21:33;0.40;;;0.40;;
45420;SDS011;55462;47.042;8.292;2023-04-01T07:24:05;0.57;;;0.55;;
45420;SDS011;55462;47.042;8.292;2023-04-01T07:26:34;0.50;;;0.50;;
45420;SDS011;55462;47.042;8.292;2023-04-01T07:28:59;0.50;;;0.50;;
45420;SDS011;55462;47.042;8.292;2023-04-01T07:31:30;0.50;;;0.50;;
45420;SDS011;55462;47.042;8.292;2023-04-01T07:34:09;0.40;;;0.40;;
45420;SDS011;55462;47.042;8.292;2023-04-01T07:44:54;0.40;;;0.40;;
45420;SDS011;55462;47.042;8.292;2023-04-01T07:53:23;0.30;;;0.30;;
45420;SDS011;55462;47.042;8.292;2023-04-01T07:58:32;0.40;;;0.40;;
45420;SDS011;55462;47.042;8.292;2023-04-01T08:04:25;0.30;;;0.30;;
45420;SDS011;55462;47.042;8.292;2023-04-01T08:20:46;1.08;;;0.30;;
45420;SDS011;55462;47.042;8.292;2023-04-01T08:23:14;0.32;;;0.32;;
45420;SDS011;55462;47.042;8.292;2023-04-01T08:25:46;0.40;;;0.40;;
45420;SDS011;55462;47.042;8.292;2023-04-01T08:28:17;0.40;;;0.40;;
45420;SDS011;55462;47.042;8.292;2023-04-01T08:33:16;0.50;;;0.50;;
45420;SDS011;55462;47.042;8.292;2023-04-01T08:35:48;0.40;;;0.40;;
45420;SDS011;55462;47.042;8.292;2023-04-01T08:38:30;0.32;;;0.32;;
45420;SDS011;55462;47.042;8.292;2023-04-01T08:40:58;0.30;;;0.30;;
45420;SDS011;55462;47.042;8.292;2023-04-01T08:43:51;0.30;;;0.30;;
45420;SDS011;55462;47.042;8.292;2023-04-01T08:52:46;0.40;;;0.40;;
45420;SDS011;55462;47.042;8.292;2023-04-01T09:00:53;0.82;;;0.50;;
45420;SDS011;55462;47.042;8.292;2023-04-01T09:17:40;0.50;;;0.50;;
45420;SDS011;55462;47.042;8.292;2023-04-01T09:23:10;0.40;;;0.40;;
45420;SDS011;55462;47.042;8.292;2023-04-01T09:42:48;0.47;;;0.47;;
45420;SDS011;55462;47.042;8.292;2023-04-01T09:50:59;0.30;;;0.30;;
45420;SDS011;55462;47.042;8.292;2023-04-01T09:53:36;0.50;;;0.50;;
45420;SDS011;55462;47.042;8.292;2023-04-01T09:59:02;0.30;;;0.30;;
45420;SDS011;55462;47.042;8.292;2023-04-01T10:43:46;0.38;;;0.38;;
45420;SDS011;55462;47.042;8.292;2023-04-01T10:52:12;0.40;;;0.40;;
45420;SDS011;55462;47.042;8.292;2023-04-01T11:15:41;0.63;;;0.45;;
45420;SDS011;55462;47.042;8.292;2023-04-01T11:24:21;0.30;;;0.30;;
45420;SDS011;55462;47.042;8.292;2023-04-01T11:29:43;0.40;;;0.40;;
45420;SDS011;55462;47.042;8.292;2023-04-01T11:35:19;0.20;;;0.20;;
45420;SDS011;55462;47.042;8.292;2023-04-01T11:46:17;0.40;;;0.40;;
45420;SDS011;55462;47.042;8.292;2023-04-01T11:48:53;0.32;;;0.32;;
45420;SDS011;55462;47.042;8.292;2023-04-01T12:00:05;0.30;;;0.30;;
45420;SDS011;55462;47.042;8.292;2023-04-01T12:03:07;0.38;;;0.38;;
45420;SDS011;55462;47.042;8.292;2023-04-01T12:06:02;0.50;;;0.50;;
45420;SDS011;55462;47.042;8.292;2023-04-01T12:21:36;0.40;;;0.40;;
45420;SDS011;55462;47.042;8.292;2023-04-01T12:24:20;0.40;;;0.40;;
45420;SDS011;55462;47.042;8.292;2023-04-01T12:27:14;0.40;;;0.40;;
45420;SDS011;55462;47.042;8.292;2023-04-01T12:33:01;0.40;;;0.40;;
45420;SDS011;55462;47.042;8.292;2023-04-01T12:35:33;0.43;;;0.43;;
45420;SDS011;55462;47.042;8.292;2023-04-01T12:38:15;0.50;;;0.50;;
45420;SDS011;55462;47.042;8.292;2023-04-01T12:43:44;2.42;;;0.70;;
45420;SDS011;55462;47.042;8.292;2023-04-01T12:46:29;0.55;;;0.47;;
45420;SDS011;55462;47.042;8.292;2023-04-01T12:54:37;0.47;;;0.47;;
45420;SDS011;55462;47.042;8.292;2023-04-01T12:57:29;0.40;;;0.40;;
45420;SDS011;55462;47.042;8.292;2023-04-01T13:08:52;0.45;;;0.45;;
45420;SDS011;55462;47.042;8.292;2023-04-01T13:17:18;0.50;;;0.50;;
45420;SDS011;55462;47.042;8.292;2023-04-01T13:20:12;0.88;;;0.55;;
45420;SDS011;55462;47.042;8.292;2023-04-01T13:25:36;1.05;;;0.50;;
45420;SDS011;55462;47.042;8.292;2023-04-01T13:28:23;0.45;;;0.45;;
45420;SDS011;55462;47.042;8.292;2023-04-01T13:31:14;0.77;;;0.60;;
45420;SDS011;55462;47.042;8.292;2023-04-01T13:36:56;0.52;;;0.50;;
45420;SDS011;55462;47.042;8.292;2023-04-01T13:42:39;0.52;;;0.52;;
45420;SDS011;55462;47.042;8.292;2023-04-01T13:45:26;1.33;;;0.57;;
45420;SDS011;55462;47.042;8.292;2023-04-01T13:50:48;0.70;;;0.43;;
45420;SDS011;55462;47.042;8.292;2023-04-01T14:04:38;0.50;;;0.50;;
45420;SDS011;55462;47.042;8.292;2023-04-01T14:10:04;1.73;;;0.50;;
45420;SDS011;55462;47.042;8.292;2023-04-01T14:20:41;0.40;;;0.40;;
45420;SDS011;55462;47.042;8.292;2023-04-01T14:34:05;0.95;;;0.70;;
45420;SDS011;55462;47.042;8.292;2023-04-01T14:39:29;0.40;;;0.40;;
45420;SDS011;55462;47.042;8.292;2023-04-01T14:53:51;0.40;;;0.40;;
45420;SDS011;55462;47.042;8.292;2023-04-01T14:59:04;0.45;;;0.45;;
45420;SDS011;55462;47.042;8.292;2023-04-01T15:10:23;0.55;;;0.55;;
45420;SDS011;55462;47.042;8.292;2023-04-01T15:13:13;0.40;;;0.40;;
45420;SDS011;55462;47.042;8.292;2023-04-01T15:15:49;0.30;;;0.30;;
45420;SDS011;55462;47.042;8.292;2023-04-01T15:18:53;0.35;;;0.35;;
45420;SDS011;55462;47.042;8.292;2023-04-01T15:32:01;0.40;;;0.40;;
45420;SDS011;55462;47.042;8.292;2023-04-01T15:34:49;0.50;;;0.50;;
45420;SDS011;55462;47.042;8.292;2023-04-01T15:40:29;0.63;;;0.63;;
45420;SDS011;55462;47.042;8.292;2023-04-01T15:43:09;0.40;;;0.40;;
45420;SDS011;55462;47.042;8.292;2023-04-01T15:45:58;0.40;;;0.40;;
45420;SDS011;55462;47.042;8.292;2023-04-01T15:51:48;0.73;;;0.73;;
45420;SDS011;55462;47.042;8.292;2023-04-01T15:57:29;0.43;;;0.43;;
45420;SDS011;55462;47.042;8.292;2023-04-01T16:02:46;0.50;;;0.50;;
45420;SDS011;55462;47.042;8.292;2023-04-01T16:13:24;0.47;;;0.47;;
45420;SDS011;55462;47.042;8.292;2023-04-01T16:18:23;0.82;;;0.80;;
45420;SDS011;55462;47.042;8.292;2023-04-01T16:21:00;0.70;;;0.70;;
45420;SDS011;55462;47.042;8.292;2023-04-01T16:29:08;0.80;;;0.80;;
45420;SDS011;55462;47.042;8.292;2023-04-01T16:31:46;0.88;;;0.60;;
45420;SDS011;55462;47.042;8.292;2023-04-01T16:42:26;0.85;;;0.85;;
45420;SDS011;55462;47.042;8.292;2023-04-01T16:47:32;1.23;;;0.95;;
45420;SDS011;55462;47.042;8.292;2023-04-01T16:50:14;1.40;;;1.00;;
45420;SDS011;55462;47.042;8.292;2023-04-01T16:55:36;1.50;;;0.93;;
45420;SDS011;55462;47.042;8.292;2023-04-01T16:58:09;0.60;;;0.60;;
45420;SDS011;55462;47.042;8.292;2023-04-01T17:00:39;0.98;;;0.80;;
45420;SDS011;55462;47.042;8.292;2023-04-01T17:11:37;0.88;;;0.70;;
45420;SDS011;55462;47.042;8.292;2023-04-01T17:24:52;0.40;;;0.40;;
45420;SDS011;55462;47.042;8.292;2023-04-01T17:27:39;1.02;;;0.75;;
45420;SDS011;55462;47.042;8.292;2023-04-01T17:30:13;0.82;;;0.82;;
45420;SDS011;55462;47.042;8.292;2023-04-01T17:58:03;0.90;;;0.90;;
45420;SDS011;55462;47.042;8.292;2023-04-01T18:00:47;0.88;;;0.88;;
45420;SDS011;55462;47.042;8.292;2023-04-01T18:06:33;1.10;;;1.00;;
45420;SDS011;55462;47.042;8.292;2023-04-01T18:12:13;1.20;;;1.10;;
45420;SDS011;55462;47.042;8.292;2023-04-01T18:14:54;0.80;;;0.80;;
45420;SDS011;55462;47.042;8.292;2023-04-01T18:17:40;0.93;;;0.85;;
45420;SDS011;55462;47.042;8.292;2023-04-01T18:23:00;0.80;;;0.80;;
45420;SDS011;55462;47.042;8.292;2023-04-01T18:25:34;2.40;;;1.02;;
45420;SDS011;55462;47.042;8.292;2023-04-01T18:28:18;5.72;;;1.15;;
45420;SDS011;55462;47.042;8.292;2023-04-01T18:30:54;0.80;;;0.80;;
45420;SDS011;55462;47.042;8.292;2023-04-01T18:33:24;1.60;;;1.25;;
45420;SDS011;55462;47.042;8.292;2023-04-01T18:39:01;1.00;;;0.90;;
45420;SDS011;55462;47.042;8.292;2023-04-01T18:41:32;1.02;;;0.80;;
45420;SDS011;55462;47.042;8.292;2023-04-01T18:44:13;0.80;;;0.80;;
45420;SDS011;55462;47.042;8.292;2023-04-01T18:47:14;1.80;;;1.00;;
45420;SDS011;55462;47.042;8.292;2023-04-01T18:52:42;0.80;;;0.80;;
45420;SDS011;55462;47.042;8.292;2023-04-01T18:58:14;0.80;;;0.80;;
45420;SDS011;55462;47.042;8.292;2023-04-01T19:00:45;1.50;;;1.00;;
45420;SDS011;55462;47.042;8.292;2023-04-01T19:05:41;0.70;;;0.70;;
45420;SDS011;55462;47.042;8.292;2023-04-01T19:08:16;1.08;;;0.98;;
45420;SDS011;55462;47.042;8.292;2023-04-01T19:10:51;0.68;;;0.68;;
45420;SDS011;55462;47.042;8.292;2023-04-01T19:32:06;0.60;;;0.60;;
45420;SDS011;55462;47.042;8.292;2023-04-01T19:37:36;1.10;;;1.10;;
45420;SDS011;55462;47.042;8.292;2023-04-01T19:43:16;1.38;;;1.10;;
45420;SDS011;55462;47.042;8.292;2023-04-01T19:51:34;1.02;;;1.02;;
45420;SDS011;55462;47.042;8.292;2023-04-01T19:57:15;1.67;;;0.75;;
45420;SDS011;55462;47.042;8.292;2023-04-01T19:59:50;4.15;;;3.63;;
45420;SDS011;55462;47.042;8.292;2023-04-01T20:02:38;5.55;;;4.03;;
45420;SDS011;55462;47.042;8.292;2023-04-01T20:05:44;2.38;;;1.52;;
45420;SDS011;55462;47.042;8.292;2023-04-01T20:08:11;1.38;;;1.30;;
45420;SDS011;55462;47.042;8.292;2023-04-01T20:11:13;1.30;;;1.20;;
45420;SDS011;55462;47.042;8.292;2023-04-01T20:14:09;0.80;;;0.80;;
45420;SDS011;55462;47.042;8.292;2023-04-01T20:19:21;0.98;;;0.98;;
45420;SDS011;55462;47.042;8.292;2023-04-01T20:21:52;0.70;;;0.70;;
45420;SDS011;55462;47.042;8.292;2023-04-01T20:24:26;0.75;;;0.75;;
45420;SDS011;55462;47.042;8.292;2023-04-01T20:27:08;0.73;;;0.73;;
45420;SDS011;55462;47.042;8.292;2023-04-01T20:29:41;0.85;;;0.85;;
45420;SDS011;55462;47.042;8.292;2023-04-01T20:32:33;0.75;;;0.75;;
45420;SDS011;55462;47.042;8.292;2023-04-01T20:37:49;1.20;;;1.10;;
45420;SDS011;55462;47.042;8.292;2023-04-01T20:40:33;1.30;;;1.20;;
45420;SDS011;55462;47.042;8.292;2023-04-01T20:47:10;1.23;;;1.13;;
45420;SDS011;55462;47.042;8.292;2023-04-01T20:49:15;3.42;;;1.45;;
45420;SDS011;55462;47.042;8.292;2023-04-01T20:51:59;2.00;;;1.80;;
45420;SDS011;55462;47.042;8.292;2023-04-01T20:57:21;2.85;;;2.22;;
45420;SDS011;55462;47.042;8.292;2023-04-01T21:11:40;1.55;;;1.45;;
45420;SDS011;55462;47.042;8.292;2023-04-01T21:22:47;0.80;;;0.80;;
45420;SDS011;55462;47.042;8.292;2023-04-01T21:34:35;1.00;;;0.93;;
45420;SDS011;55462;47.042;8.292;2023-04-01T21:59:23;1.17;;;1.13;;
45420;SDS011;55462;47.042;8.292;2023-04-01T22:10:09;0.82;;;0.82;;
45420;SDS011;55462;47.042;8.292;2023-04-01T22:18:19;0.50;;;0.50;;
45420;SDS011;55462;47.042;8.292;2023-04-01T22:26:23;0.73;;;0.60;;
45420;SDS011;55462;47.042;8.292;2023-04-01T22:34:34;0.70;;;0.70;;
45420;SDS011;55462;47.042;8.292;2023-04-01T22:42:46;2.40;;;0.90;;
45420;SDS011;55462;47.042;8.292;2023-04-01T22:45:21;1.08;;;1.05;;
45420;SDS011;55462;47.042;8.292;2023-04-01T22:50:34;1.83;;;1.30;;
45420;SDS011;55462;47.042;8.292;2023-04-01T22:55:57;2.03;;;1.63;;
45420;SDS011;55462;47.042;8.292;2023-04-01T23:02:30;1.60;;;1.50;;
45420;SDS011;55462;47.042;8.292;2023-04-01T23:04:54;1.58;;;1.20;;
45420;SDS011;55462;47.042;8.292;2023-04-01T23:07:36;2.22;;;1.45;;
45420;SDS011;55462;47.042;8.292;2023-04-01T23:10:19;1.67;;;1.50;;
45420;SDS011;55462;47.042;8.292;2023-04-01T23:12:49;1.95;;;1.25;;
45420;SDS011;55462;47.042;8.292;2023-04-01T23:15:16;1.58;;;1.00;;
45420;SDS011;55462;47.042;8.292;2023-04-01T23:18:01;4.38;;;1.20;;
45420;SDS011;55462;47.042;8.292;2023-04-01T23:20:48;1.98;;;1.30;;
45420;SDS011;55462;47.042;8.292;2023-04-01T23:28:46;1.45;;;1.35;;
45420;SDS011;55462;47.042;8.292;2023-04-01T23:31:27;3.25;;;2.03;;
45420;SDS011;55462;47.042;8.292;2023-04-01T23:36:44;1.90;;;1.80;;
45420;SDS011;55462;47.042;8.292;2023-04-01T23:41:46;0.73;;;0.73;;
45420;SDS011;55462;47.042;8.292;2023-04-01T23:44:12;1.30;;;0.90;;
45420;SDS011;55462;47.042;8.292;2023-04-01T23:46:38;0.95;;;0.95;;
45420;SDS011;55462;47.042;8.292;2023-04-01T23:49:05;0.90;;;0.90;;
45420;SDS011;55462;47.042;8.292;2023-04-01T23:51:37;0.80;;;0.80;;
45420;SDS011;55462;47.042;8.292;2023-04-01T23:56:41;0.95;;;0.75;;
45420;SDS011;55462;47.042;8.292;2023-04-01T23:59:14;2.17;;;0.80;;
